Time;durP1;ratioP1;P1;durP2;ratioP2;P2;SDS_P1;SDS_P2;PMS_P1;PMS_P2;Temp;Humidity;BMP_temperature;BMP_pressure;BME280_temperature;BME280_humidity;BME280_pressure;Samples;Min_cycle;Max_cycle;Signal;HPM_P1;HPM_P2
2021/04/08 00:01:16;;;;;;;0.97;0.97;;;3.70;99.90;;;;;;5034438;28;20213;-85
2021/04/08 00:03:43;;;;;;;0.30;0.30;;;3.60;99.90;;;;;;5071636;28;20228;-86
2021/04/08 00:06:09;;;;;;;0.40;0.40;;;3.50;99.90;;;;;;5052421;28;20212;-84
2021/04/08 00:08:36;;;;;;;1.50;1.40;;;3.50;99.90;;;;;;5036523;28;20618;-84
2021/04/08 00:11:02;;;;;;;0.20;0.20;;;3.40;99.90;;;;;;5038745;28;20251;-84
2021/04/08 00:13:28;;;;;;;0.77;0.50;;;3.30;99.90;;;;;;5064602;28;20220;-86
2021/04/08 00:15:54;;;;;;;0.30;0.30;;;3.30;99.90;;;;;;5073767;28;20209;-83
2021/04/08 00:18:20;;;;;;;0.20;0.20;;;3.30;99.90;;;;;;5057303;28;20217;-86
2021/04/08 00:20:46;;;;;;;0.27;0.27;;;3.30;99.90;;;;;;5057321;28;20303;-83
2021/04/08 00:23:12;;;;;;;0.37;0.37;;;3.30;99.90;;;;;;5039060;28;20192;-84
2021/04/08 00:25:38;;;;;;;0.60;0.60;;;3.40;99.90;;;;;;5040760;28;20197;-84
2021/04/08 00:28:05;;;;;;;0.60;0.60;;;3.50;99.90;;;;;;5055590;28;20212;-84
2021/04/08 00:30:42;;;;;;;0.30;0.30;;;3.30;99.90;;;;;;5040357;28;20228;-86
2021/04/08 00:33:14;;;;;;;0.30;0.30;;;3.00;99.90;;;;;;5041909;28;20712;-86
2021/04/08 00:35:41;;;;;;;0.43;0.43;;;2.70;99.90;;;;;;5073427;28;20209;-83
2021/04/08 00:38:07;;;;;;;0.37;0.37;;;2.60;99.90;;;;;;5040100;28;21057;-88
2021/04/08 00:40:34;;;;;;;0.30;0.30;;;2.50;99.90;;;;;;5056868;28;20724;-83
2021/04/08 00:43:00;;;;;;;0.47;0.47;;;2.50;99.90;;;;;;5038141;28;20825;-86
2021/04/08 00:45:25;;;;;;;0.20;0.20;;;2.50;99.90;;;;;;5055749;28;20213;-83
2021/04/08 00:47:51;;;;;;;0.53;0.53;;;2.50;99.90;;;;;;5038324;28;20244;-84
2021/04/08 00:50:18;;;;;;;0.63;0.60;;;2.50;99.90;;;;;;5039250;28;20353;-85
2021/04/08 00:52:52;;;;;;;0.83;0.83;;;2.50;99.90;;;;;;5057184;28;20185;-83
2021/04/08 00:55:21;;;;;;;23.03;1.00;;;2.40;99.90;;;;;;5053117;28;20577;-84
2021/04/08 00:57:47;;;;;;;0.50;0.50;;;2.40;99.90;;;;;;5047547;28;21327;-86
2021/04/08 01:00:14;;;;;;;0.30;0.30;;;2.40;99.90;;;;;;5039316;28;20217;-83
2021/04/08 01:02:39;;;;;;;0.40;0.40;;;2.40;99.90;;;;;;5057520;28;20277;-83
2021/04/08 01:05:06;;;;;;;0.67;0.67;;;2.30;99.90;;;;;;5056996;28;20946;-83
2021/04/08 01:07:33;;;;;;;0.30;0.30;;;2.40;99.90;;;;;;5040438;28;20389;-85
2021/04/08 01:10:00;;;;;;;0.30;0.30;;;2.40;99.90;;;;;;5054044;28;21431;-83
2021/04/08 01:12:26;;;;;;;2.07;1.07;;;2.50;99.90;;;;;;5056433;28;20339;-83
2021/04/08 01:14:52;;;;;;;3.80;1.57;;;2.60;99.90;;;;;;5037673;28;21251;-83
2021/04/08 01:17:24;;;;;;;0.33;0.33;;;2.60;99.90;;;;;;5073117;28;20254;-85
2021/04/08 01:20:34;;;;;;;0.60;0.60;;;2.60;99.90;;;;;;5055942;28;20213;-82
2021/04/08 01:23:27;;;;;;;0.50;0.50;;;2.70;99.90;;;;;;5058829;28;20221;-83
2021/04/08 01:25:55;;;;;;;4.70;1.27;;;2.80;99.90;;;;;;5052545;28;20291;-83
2021/04/08 01:28:37;;;;;;;0.50;0.50;;;2.90;99.90;;;;;;5056018;28;20217;-83
2021/04/08 01:31:05;;;;;;;1.60;0.53;;;2.90;99.90;;;;;;5054002;28;20236;-83
2021/04/08 01:33:50;;;;;;;0.90;0.90;;;3.00;99.90;;;;;;5056240;28;20227;-83
2021/04/08 01:36:22;;;;;;;2.60;2.50;;;3.00;99.90;;;;;;5056973;28;20314;-85
2021/04/08 01:39:04;;;;;;;0.30;0.30;;;3.00;99.90;;;;;;5055563;28;20205;-83
2021/04/08 01:41:36;;;;;;;0.63;0.63;;;3.00;99.90;;;;;;5055512;28;20247;-83
2021/04/08 01:44:03;;;;;;;0.27;0.27;;;3.00;99.90;;;;;;5069479;28;20231;-83
2021/04/08 01:46:32;;;;;;;0.20;0.20;;;3.10;99.90;;;;;;5033582;28;20283;-86
2021/04/08 01:49:00;;;;;;;0.53;0.53;;;3.10;99.90;;;;;;5051234;28;20253;-83
2021/04/08 01:51:28;;;;;;;0.30;0.30;;;3.10;99.90;;;;;;5053897;28;20232;-86
2021/04/08 01:53:59;;;;;;;1.40;1.30;;;3.20;99.90;;;;;;5069394;28;20255;-85
2021/04/08 01:56:32;;;;;;;0.40;0.40;;;3.20;99.90;;;;;;5071226;28;20267;-84
2021/04/08 01:59:00;;;;;;;0.73;0.73;;;3.30;99.90;;;;;;5072130;28;20560;-84
2021/04/08 02:01:26;;;;;;;0.20;0.20;;;3.30;99.90;;;;;;5055404;28;20591;-83
2021/04/08 02:03:52;;;;;;;2.73;0.60;;;3.40;99.90;;;;;;5054554;28;20231;-84
2021/04/08 02:06:22;;;;;;;0.40;0.40;;;3.40;99.90;;;;;;5054768;28;20237;-85
2021/04/08 02:08:50;;;;;;;1.43;1.33;;;3.40;99.90;;;;;;5054552;28;20217;-83
2021/04/08 02:11:17;;;;;;;0.30;0.30;;;3.40;99.90;;;;;;5052974;28;20239;-85
2021/04/08 02:13:45;;;;;;;10.10;0.67;;;3.30;99.90;;;;;;5053530;28;20190;-83
2021/04/08 02:16:11;;;;;;;0.77;0.70;;;3.30;99.90;;;;;;5053769;28;20304;-83
2021/04/08 02:18:38;;;;;;;0.30;0.30;;;3.30;99.90;;;;;;5053582;28;20697;-83
2021/04/08 02:21:05;;;;;;;0.50;0.50;;;3.30;99.90;;;;;;5053132;28;20243;-83
2021/04/08 02:23:36;;;;;;;0.43;0.43;;;3.20;99.90;;;;;;5070985;28;20242;-86
2021/04/08 02:26:03;;;;;;;2.43;0.90;;;3.20;99.90;;;;;;5070114;28;20188;-84
2021/04/08 02:28:33;;;;;;;2.07;0.60;;;3.10;99.90;;;;;;5020815;28;20189;-84
2021/04/08 02:30:59;;;;;;;2.07;0.83;;;3.10;99.90;;;;;;5051650;28;20225;-83
2021/04/08 02:33:30;;;;;;;0.27;0.27;;;3.10;99.90;;;;;;5055639;28;20392;-85
2021/04/08 02:35:57;;;;;;;0.40;0.40;;;3.10;99.90;;;;;;5044718;28;20231;-85
2021/04/08 02:38:26;;;;;;;0.30;0.30;;;3.10;99.90;;;;;;5052946;28;20229;-84
2021/04/08 02:40:53;;;;;;;0.27;0.27;;;3.10;99.90;;;;;;5053339;28;20178;-82
2021/04/08 02:43:19;;;;;;;0.97;0.57;;;3.10;99.90;;;;;;5053860;28;20239;-83
2021/04/08 02:45:45;;;;;;;0.40;0.40;;;3.20;99.90;;;;;;5052903;28;20300;-85
2021/04/08 02:48:13;;;;;;;0.20;0.20;;;3.20;99.90;;;;;;5035114;28;20686;-83
2021/04/08 02:50:41;;;;;;;0.30;0.30;;;3.30;99.90;;;;;;5070996;28;20221;-83
2021/04/08 02:53:30;;;;;;;0.57;0.57;;;3.40;99.90;;;;;;5035365;28;20173;-83
2021/04/08 02:56:14;;;;;;;0.23;0.23;;;3.50;99.90;;;;;;5052508;28;20712;-86
2021/04/08 02:58:42;;;;;;;2.13;1.50;;;3.60;99.90;;;;;;5052615;28;20358;-84
2021/04/08 03:01:11;;;;;;;0.63;0.63;;;3.60;99.90;;;;;;5071182;28;20235;-83
2021/04/08 03:03:54;;;;;;;0.50;0.50;;;3.70;99.90;;;;;;5053529;28;20288;-83
2021/04/08 03:06:21;;;;;;;0.60;0.60;;;3.70;99.90;;;;;;5068979;28;20270;-86
2021/04/08 03:08:51;;;;;;;0.27;0.27;;;3.80;99.90;;;;;;5054581;28;20204;-84
2021/04/08 03:11:23;;;;;;;1.37;1.03;;;3.70;99.90;;;;;;5052215;28;20248;-85
2021/04/08 03:13:51;;;;;;;0.53;0.53;;;3.70;99.90;;;;;;5052848;28;20579;-85
2021/04/08 03:16:20;;;;;;;0.50;0.50;;;3.70;99.90;;;;;;5036563;28;20223;-85
2021/04/08 03:18:49;;;;;;;0.20;0.20;;;3.70;99.90;;;;;;5051785;28;20269;-84
2021/04/08 03:21:16;;;;;;;0.30;0.30;;;3.70;99.90;;;;;;5052133;28;20312;-84
2021/04/08 03:23:43;;;;;;;0.57;0.57;;;3.70;99.90;;;;;;5054054;28;20208;-83
2021/04/08 03:26:10;;;;;;;1.07;1.07;;;3.60;99.90;;;;;;5037352;28;20184;-83
2021/04/08 03:28:38;;;;;;;5.37;0.50;;;3.60;99.90;;;;;;5054166;28;20300;-83
2021/04/08 03:31:05;;;;;;;1.50;0.33;;;3.60;99.90;;;;;;5054821;28;20297;-85
2021/04/08 03:33:35;;;;;;;0.30;0.30;;;3.60;99.90;;;;;;5070812;28;20239;-82
2021/04/08 03:36:02;;;;;;;0.53;0.53;;;3.60;99.90;;;;;;5051731;28;20299;-84
2021/04/08 03:38:29;;;;;;;0.40;0.40;;;3.60;99.90;;;;;;5036641;28;20684;-83
2021/04/08 03:40:59;;;;;;;1.13;0.97;;;3.60;99.90;;;;;;5071717;28;20188;-84
2021/04/08 03:43:26;;;;;;;0.37;0.37;;;3.60;99.90;;;;;;5036492;28;20221;-87
2021/04/08 03:45:56;;;;;;;3.00;1.30;;;3.50;99.90;;;;;;5052156;28;20217;-84
2021/04/08 03:48:22;;;;;;;2.37;0.90;;;3.50;99.90;;;;;;5054190;28;20209;-83
2021/04/08 03:50:49;;;;;;;0.30;0.30;;;3.50;99.90;;;;;;5023803;28;20223;-83
2021/04/08 03:53:17;;;;;;;0.40;0.40;;;3.40;99.90;;;;;;5052958;28;20255;-83
2021/04/08 03:55:45;;;;;;;1.13;0.93;;;3.50;99.90;;;;;;5041213;28;20698;-84
2021/04/08 03:58:11;;;;;;;0.40;0.40;;;3.50;99.90;;;;;;5043156;28;20278;-83
2021/04/08 04:00:38;;;;;;;0.30;0.30;;;3.50;99.90;;;;;;5061175;28;20220;-83
2021/04/08 04:03:09;;;;;;;2.97;0.73;;;3.60;99.90;;;;;;5042889;28;20247;-87
2021/04/08 04:05:36;;;;;;;0.40;0.40;;;3.60;99.90;;;;;;5075679;28;20282;-83
2021/04/08 04:08:02;;;;;;;0.40;0.40;;;3.60;99.90;;;;;;5056544;28;20197;-83
2021/04/08 04:10:28;;;;;;;0.97;0.97;;;3.60;99.90;;;;;;5055924;28;20217;-86
2021/04/08 04:12:56;;;;;;;2.13;1.43;;;3.70;99.90;;;;;;5033289;28;20224;-83
2021/04/08 04:15:22;;;;;;;0.70;0.70;;;3.70;99.90;;;;;;5052805;28;20248;-85
2021/04/08 04:17:48;;;;;;;0.33;0.33;;;3.70;99.90;;;;;;5038830;28;20299;-82
2021/04/08 04:20:17;;;;;;;1.40;0.37;;;3.80;99.90;;;;;;5055593;28;20198;-85
2021/04/08 04:22:43;;;;;;;0.60;0.60;;;3.70;99.90;;;;;;5040747;28;20177;-84
2021/04/08 04:25:11;;;;;;;1.23;1.23;;;3.30;99.90;;;;;;5023630;28;20712;-83
2021/04/08 04:27:37;;;;;;;0.30;0.30;;;3.10;99.90;;;;;;5072727;28;20238;-83
2021/04/08 04:30:08;;;;;;;0.30;0.30;;;3.00;99.90;;;;;;5053740;28;21052;-84
2021/04/08 04:32:34;;;;;;;0.20;0.20;;;2.90;99.90;;;;;;5054102;28;20225;-84
2021/04/08 04:35:01;;;;;;;0.30;0.30;;;2.90;99.90;;;;;;5057625;28;20185;-86
2021/04/08 04:37:26;;;;;;;3.47;2.00;;;3.00;99.90;;;;;;5055828;28;20240;-82
2021/04/08 04:39:52;;;;;;;3.77;1.00;;;3.00;99.90;;;;;;5046060;28;20316;-83
2021/04/08 04:42:18;;;;;;;0.30;0.30;;;3.20;99.90;;;;;;5038370;28;20274;-85
2021/04/08 04:44:44;;;;;;;0.30;0.30;;;3.20;99.90;;;;;;5055326;28;20300;-83
2021/04/08 04:47:10;;;;;;;0.30;0.30;;;3.30;99.90;;;;;;5039644;28;20200;-85
2021/04/08 04:49:35;;;;;;;2.30;2.20;;;3.40;99.90;;;;;;5055667;28;20220;-82
2021/04/08 04:52:01;;;;;;;0.23;0.23;;;3.50;99.90;;;;;;5037867;28;20798;-83
2021/04/08 04:54:27;;;;;;;0.30;0.30;;;3.50;99.90;;;;;;5036872;28;20253;-83
2021/04/08 04:56:53;;;;;;;0.50;0.50;;;3.50;99.90;;;;;;5040206;28;20299;-84
2021/04/08 04:59:19;;;;;;;0.47;0.47;;;3.50;99.90;;;;;;5030420;28;20321;-84
2021/04/08 05:01:44;;;;;;;0.20;0.20;;;3.40;99.90;;;;;;5041363;28;21030;-83
2021/04/08 05:04:10;;;;;;;0.87;0.70;;;3.30;99.90;;;;;;5053880;28;20232;-86
2021/04/08 05:06:36;;;;;;;0.30;0.30;;;3.30;99.90;;;;;;5023682;28;20217;-82
2021/04/08 05:09:02;;;;;;;0.57;0.53;;;3.30;99.90;;;;;;5038897;28;20224;-83
2021/04/08 05:11:28;;;;;;;0.30;0.30;;;3.30;99.90;;;;;;5074604;28;20224;-83
2021/04/08 05:13:54;;;;;;;7.33;1.23;;;3.20;99.90;;;;;;5074954;28;20200;-83
2021/04/08 05:16:20;;;;;;;0.53;0.53;;;3.20;99.90;;;;;;5037890;28;20247;-85
2021/04/08 05:18:46;;;;;;;0.40;0.40;;;3.20;99.90;;;;;;5037111;28;20244;-83
2021/04/08 05:21:12;;;;;;;0.40;0.40;;;3.20;99.90;;;;;;5034631;28;20257;-84
2021/04/08 05:23:39;;;;;;;0.30;0.30;;;3.20;99.90;;;;;;5037038;28;20669;-85
2021/04/08 05:26:05;;;;;;;2.97;1.37;;;3.30;99.90;;;;;;5054400;28;20296;-83
2021/04/08 05:28:31;;;;;;;0.43;0.43;;;3.40;99.90;;;;;;5037924;28;20182;-83
2021/04/08 05:30:57;;;;;;;1.10;1.03;;;3.50;99.90;;;;;;5037260;28;20217;-83
2021/04/08 05:33:22;;;;;;;0.30;0.30;;;3.60;99.90;;;;;;5063267;28;20219;-86
2021/04/08 05:35:48;;;;;;;0.30;0.30;;;3.70;99.90;;;;;;5020795;28;21199;-82
2021/04/08 05:38:14;;;;;;;0.57;0.57;;;3.70;99.90;;;;;;5038105;28;20865;-82
2021/04/08 05:40:40;;;;;;;1.17;0.97;;;3.80;99.90;;;;;;5055417;28;20192;-83
2021/04/08 05:43:05;;;;;;;0.40;0.40;;;3.80;99.90;;;;;;5021395;28;20220;-85
2021/04/08 05:45:32;;;;;;;0.50;0.50;;;3.90;99.90;;;;;;5070973;28;20964;-83
2021/04/08 05:47:58;;;;;;;0.63;0.63;;;3.90;99.90;;;;;;5054934;28;20228;-83
2021/04/08 05:50:25;;;;;;;0.47;0.47;;;4.00;99.90;;;;;;5071710;28;20237;-83
2021/04/08 05:52:51;;;;;;;0.40;0.40;;;4.00;99.90;;;;;;5052997;28;20189;-83
2021/04/08 05:55:16;;;;;;;0.40;0.40;;;4.10;99.90;;;;;;5037021;28;20605;-85
2021/04/08 05:57:42;;;;;;;3.30;1.80;;;4.10;99.90;;;;;;5051847;28;20230;-87
2021/04/08 06:00:10;;;;;;;1.83;1.00;;;4.30;99.90;;;;;;5037593;28;20572;-84
2021/04/08 06:02:36;;;;;;;0.37;0.37;;;4.30;99.90;;;;;;5029306;28;20217;-84
2021/04/08 06:05:05;;;;;;;0.97;0.87;;;4.30;99.90;;;;;;5051429;28;20201;-83
2021/04/08 06:07:31;;;;;;;2.00;1.50;;;4.40;99.90;;;;;;5071160;28;20177;-83
2021/04/08 06:09:57;;;;;;;3.87;0.90;;;4.40;99.90;;;;;;5020387;28;20229;-83
2021/04/08 06:12:23;;;;;;;8.63;1.10;;;4.40;99.90;;;;;;5055030;28;20240;-86
2021/04/08 06:14:50;;;;;;;0.73;0.70;;;4.50;99.90;;;;;;5052495;28;20234;-86
2021/04/08 06:17:16;;;;;;;0.97;0.70;;;4.50;99.90;;;;;;5055971;28;20185;-83
2021/04/08 06:19:42;;;;;;;1.50;1.07;;;4.60;99.90;;;;;;5038294;28;20246;-83
2021/04/08 06:22:08;;;;;;;0.60;0.60;;;4.60;99.90;;;;;;5037082;28;20809;-83
2021/04/08 06:24:34;;;;;;;1.47;0.60;;;4.60;99.90;;;;;;5035317;28;20745;-84
2021/04/08 06:27:00;;;;;;;0.57;0.57;;;4.60;99.90;;;;;;5052782;28;20224;-83
2021/04/08 06:29:26;;;;;;;1.30;0.90;;;4.70;99.90;;;;;;5070896;28;20216;-86
2021/04/08 06:31:52;;;;;;;0.83;0.80;;;4.70;99.90;;;;;;5035261;28;20189;-83
2021/04/08 06:34:18;;;;;;;6.73;1.70;;;4.90;99.90;;;;;;5031449;28;20237;-86
2021/04/08 06:36:43;;;;;;;2.73;0.50;;;5.20;99.90;;;;;;5033768;28;20204;-85
2021/04/08 06:39:09;;;;;;;0.47;0.47;;;5.30;99.90;;;;;;5049698;28;20554;-87
2021/04/08 06:41:37;;;;;;;0.30;0.30;;;5.50;99.90;;;;;;5044470;28;20708;-86
2021/04/08 06:44:05;;;;;;;1.07;0.73;;;5.60;99.90;;;;;;5048333;28;20188;-84
2021/04/08 06:46:34;;;;;;;2.20;0.90;;;6.20;99.90;;;;;;5049810;28;20185;-83
2021/04/08 06:49:19;;;;;;;1.53;0.90;;;7.10;99.90;;;;;;5063630;28;20216;-82
2021/04/08 06:51:48;;;;;;;0.87;0.60;;;10.20;99.90;;;;;;5067550;28;20340;-82
2021/04/08 06:54:16;;;;;;;0.80;0.80;;;12.50;99.90;;;;;;5028822;28;20430;-84
2021/04/08 06:56:43;;;;;;;0.63;0.63;;;14.40;99.90;;;;;;5046519;28;20239;-84
2021/04/08 06:59:11;;;;;;;0.50;0.50;;;14.80;99.90;;;;;;5049478;28;20303;-85
2021/04/08 07:01:37;;;;;;;0.37;0.37;;;13.50;99.90;;;;;;5035897;28;20185;-86
2021/04/08 07:04:05;;;;;;;0.37;0.37;;;10.80;99.90;;;;;;5037659;28;20238;-85
2021/04/08 07:06:31;;;;;;;0.60;0.60;;;9.80;99.90;;;;;;5035241;28;20308;-83
2021/04/08 07:08:57;;;;;;;1.27;0.70;;;8.90;99.90;;;;;;5036492;28;21527;-86
2021/04/08 07:11:26;;;;;;;0.40;0.40;;;8.20;99.90;;;;;;5032692;28;20245;-86
2021/04/08 07:13:51;;;;;;;0.53;0.53;;;7.50;99.90;;;;;;5050114;28;20212;-83
2021/04/08 07:16:17;;;;;;;0.77;0.77;;;7.10;99.90;;;;;;5049224;28;21061;-85
2021/04/08 07:18:43;;;;;;;0.30;0.30;;;7.00;99.90;;;;;;5033656;28;20209;-84
2021/04/08 07:21:09;;;;;;;0.43;0.43;;;7.00;99.90;;;;;;5048846;28;20211;-85
2021/04/08 07:23:35;;;;;;;0.60;0.60;;;7.90;99.90;;;;;;5048473;28;20336;-86
2021/04/08 07:26:10;;;;;;;0.50;0.50;;;8.70;99.90;;;;;;5035075;28;20647;-83
2021/04/08 07:28:41;;;;;;;0.60;0.60;;;8.30;99.90;;;;;;5049222;28;20216;-83
2021/04/08 07:31:22;;;;;;;0.50;0.50;;;7.60;99.90;;;;;;5048076;28;20332;-83
2021/04/08 07:33:49;;;;;;;3.70;0.83;;;7.10;99.90;;;;;;5049050;28;20247;-83
2021/04/08 07:36:38;;;;;;;0.30;0.30;;;7.00;99.90;;;;;;5033225;28;20280;-83
2021/04/08 07:39:06;;;;;;;0.30;0.30;;;6.70;99.90;;;;;;5058442;28;20239;-83
2021/04/08 07:41:34;;;;;;;1.80;0.53;;;6.60;99.90;;;;;;5065018;28;20295;-86
2021/04/08 07:44:12;;;;;;;0.40;0.40;;;6.50;99.90;;;;;;5049146;28;20185;-84
2021/04/08 07:46:43;;;;;;;2.63;0.90;;;6.50;99.90;;;;;;5049965;28;20215;-83
2021/04/08 07:49:27;;;;;;;0.30;0.30;;;6.70;99.90;;;;;;5047322;28;20287;-85
2021/04/08 07:51:54;;;;;;;0.40;0.40;;;6.60;99.90;;;;;;5047891;28;20233;-87
2021/04/08 07:54:20;;;;;;;1.50;0.70;;;6.70;99.90;;;;;;5048326;28;20607;-87
2021/04/08 07:56:47;;;;;;;4.50;0.60;;;6.80;99.90;;;;;;5046773;28;20213;-85
2021/04/08 07:59:20;;;;;;;2.03;0.90;;;7.00;99.90;;;;;;5050023;28;20271;-88
2021/04/08 08:01:47;;;;;;;0.50;0.50;;;7.10;99.90;;;;;;5051771;28;20264;-85
2021/04/08 08:04:24;;;;;;;0.70;0.70;;;7.30;99.90;;;;;;5042756;28;20214;-84
2021/04/08 08:06:52;;;;;;;0.50;0.50;;;7.40;99.90;;;;;;5065143;28;20262;-86
2021/04/08 08:09:24;;;;;;;1.10;1.03;;;7.30;99.90;;;;;;5048744;28;20228;-84
2021/04/08 08:11:51;;;;;;;6.33;3.67;;;7.30;99.90;;;;;;5060229;28;20217;-83
2021/04/08 08:14:34;;;;;;;2.67;1.90;;;7.40;99.90;;;;;;5052081;28;20549;-84
2021/04/08 08:17:13;;;;;;;1.23;0.80;;;7.10;99.90;;;;;;5062717;28;20207;-83
2021/04/08 08:19:44;;;;;;;0.70;0.70;;;7.20;99.90;;;;;;5069103;28;20277;-87
2021/04/08 08:22:33;;;;;;;0.80;0.80;;;7.20;99.90;;;;;;5041354;28;20632;-81
2021/04/08 08:25:00;;;;;;;4.93;1.20;;;7.30;99.90;;;;;;5050366;28;20314;-82
2021/04/08 08:27:58;;;;;;;2.90;1.87;;;7.40;99.90;;;;;;5050446;28;20263;-82
2021/04/08 08:30:52;;;;;;;5.67;1.87;;;7.80;99.90;;;;;;5017576;28;20228;-82
2021/04/08 08:33:19;;;;;;;1.23;0.93;;;7.90;99.90;;;;;;5070088;28;20754;-85
2021/04/08 08:35:45;;;;;;;4.10;1.20;;;8.30;99.90;;;;;;5056193;28;20217;-86
2021/04/08 08:38:19;;;;;;;1.57;0.80;;;8.80;99.90;;;;;;5073693;28;20238;-86
2021/04/08 08:40:46;;;;;;;9.87;1.10;;;8.50;99.90;;;;;;5058819;28;20260;-84
2021/04/08 08:43:13;;;;;;;3.47;1.43;;;8.10;99.90;;;;;;5069491;28;20240;-85
2021/04/08 08:45:39;;;;;;;2.30;0.90;;;8.00;99.90;;;;;;5022432;28;20209;-85
2021/04/08 08:48:10;;;;;;;1.63;0.90;;;8.00;99.90;;;;;;5051372;28;20220;-84
2021/04/08 08:50:37;;;;;;;1.23;1.23;;;8.00;99.90;;;;;;5053739;28;20228;-84
2021/04/08 08:53:03;;;;;;;1.30;0.70;;;8.00;99.90;;;;;;5055799;28;20243;-82
2021/04/08 08:55:30;;;;;;;0.97;0.97;;;7.80;99.90;;;;;;5036839;28;20227;-82
2021/04/08 08:57:57;;;;;;;0.80;0.80;;;7.90;99.90;;;;;;5063531;28;20223;-83
2021/04/08 09:00:26;;;;;;;1.17;1.07;;;7.90;99.90;;;;;;5056707;28;20228;-83
2021/04/08 09:02:55;;;;;;;1.20;1.10;;;7.90;99.90;;;;;;5078073;28;20274;-82
2021/04/08 09:05:22;;;;;;;1.20;1.20;;;7.90;99.90;;;;;;5058235;28;20238;-85
2021/04/08 09:07:51;;;;;;;1.83;1.63;;;7.80;99.90;;;;;;5041226;28;20190;-86
2021/04/08 09:10:27;;;;;;;0.77;0.77;;;8.00;99.90;;;;;;5053902;28;20291;-85
2021/04/08 09:12:53;;;;;;;0.87;0.83;;;7.90;99.90;;;;;;5056720;28;20247;-84
2021/04/08 09:15:19;;;;;;;1.87;1.77;;;8.00;99.90;;;;;;5052694;28;20287;-86
2021/04/08 09:17:55;;;;;;;2.63;1.50;;;8.10;99.90;;;;;;5054752;28;20216;-82
2021/04/08 09:20:22;;;;;;;4.90;2.53;;;8.40;99.90;;;;;;5051328;28;20237;-82
2021/04/08 09:22:51;;;;;;;5.93;4.00;;;8.70;99.90;;;;;;5071277;28;20188;-82
2021/04/08 09:25:19;;;;;;;2.27;2.03;;;8.90;99.90;;;;;;5072838;28;20213;-84
2021/04/08 09:27:55;;;;;;;2.83;1.90;;;8.80;99.90;;;;;;5036192;28;20219;-84
2021/04/08 09:30:43;;;;;;;0.80;0.80;;;8.80;99.90;;;;;;5055304;28;20220;-82
2021/04/08 09:33:11;;;;;;;4.07;1.47;;;8.50;99.90;;;;;;5052813;28;20696;-84
2021/04/08 09:35:38;;;;;;;2.60;1.50;;;8.70;99.90;;;;;;5045504;28;20217;-84
2021/04/08 09:38:03;;;;;;;6.40;2.20;;;8.70;99.90;;;;;;5052918;28;20185;-84
2021/04/08 09:40:37;;;;;;;1.50;1.40;;;9.00;99.90;;;;;;5054136;28;20196;-84
2021/04/08 09:43:04;;;;;;;2.13;1.67;;;9.10;99.90;;;;;;5071651;28;20220;-83
2021/04/08 09:45:31;;;;;;;3.60;2.83;;;8.90;99.90;;;;;;5071931;28;20229;-83
2021/04/08 09:48:21;;;;;;;2.77;1.60;;;8.70;99.90;;;;;;5035646;28;20209;-83
2021/04/08 09:50:50;;;;;;;1.67;1.57;;;8.80;99.90;;;;;;5071918;28;20221;-81
2021/04/08 09:53:18;;;;;;;1.70;1.60;;;8.50;99.90;;;;;;5052412;28;20701;-80
2021/04/08 09:56:01;;;;;;;3.00;2.40;;;8.40;99.90;;;;;;5071469;28;20177;-82
2021/04/08 09:58:32;;;;;;;2.90;2.27;;;8.40;99.90;;;;;;5070947;28;20275;-81
2021/04/08 10:01:10;;;;;;;2.70;1.87;;;8.40;99.90;;;;;;5053677;28;20229;-83
2021/04/08 10:03:41;;;;;;;2.33;1.93;;;8.50;99.90;;;;;;5036420;28;20220;-81
2021/04/08 10:06:18;;;;;;;3.33;2.50;;;8.50;99.90;;;;;;5071686;28;20224;-82
2021/04/08 10:08:44;;;;;;;1.80;1.37;;;8.70;99.90;;;;;;5053814;28;20226;-83
2021/04/08 10:11:14;;;;;;;1.73;1.60;;;8.50;99.90;;;;;;5034601;28;20236;-85
2021/04/08 10:13:41;;;;;;;2.53;1.73;;;8.70;99.90;;;;;;5053545;28;20221;-84
2021/04/08 10:16:09;;;;;;;8.83;1.93;;;8.80;99.90;;;;;;5037132;28;21078;-82
2021/04/08 10:18:35;;;;;;;1.50;1.40;;;8.60;99.90;;;;;;5069210;28;20227;-85
2021/04/08 10:21:21;;;;;;;2.60;2.40;;;8.70;99.90;;;;;;5034766;28;20228;-81
2021/04/08 10:23:51;;;;;;;2.07;1.83;;;8.90;99.90;;;;;;5034772;28;20209;-83
2021/04/08 10:26:19;;;;;;;1.70;1.60;;;9.30;99.90;;;;;;5035373;28;20324;-85
2021/04/08 10:28:49;;;;;;;2.70;2.17;;;9.20;99.90;;;;;;5051112;28;20184;-85
2021/04/08 10:31:21;;;;;;;6.00;2.00;;;9.00;99.90;;;;;;5051364;28;20725;-85
2021/04/08 10:33:49;;;;;;;2.60;2.37;;;8.80;99.90;;;;;;5069342;28;20300;-85
2021/04/08 10:36:37;;;;;;;2.20;2.00;;;8.50;99.90;;;;;;5044850;28;20220;-84
2021/04/08 10:39:07;;;;;;;6.20;1.87;;;8.30;99.90;;;;;;5051028;28;20224;-83
2021/04/08 10:41:34;;;;;;;3.47;1.87;;;8.20;99.90;;;;;;5069028;28;20212;-84
2021/04/08 10:44:22;;;;;;;1.00;1.00;;;8.60;99.90;;;;;;5020281;28;20209;-85
2021/04/08 10:46:50;;;;;;;4.03;2.40;;;8.70;99.90;;;;;;5051223;28;20216;-86
2021/04/08 10:49:23;;;;;;;1.90;1.80;;;8.70;99.90;;;;;;5053040;28;20209;-85
2021/04/08 10:51:49;;;;;;;3.20;2.67;;;8.60;99.90;;;;;;5052272;28;20217;-86
2021/04/08 10:54:15;;;;;;;2.50;2.03;;;8.80;99.90;;;;;;5033970;28;20214;-83
2021/04/08 10:56:45;;;;;;;4.60;2.37;;;9.80;99.90;;;;;;5034193;28;21415;-86
2021/04/08 10:59:30;;;;;;;3.23;2.13;;;10.20;99.90;;;;;;5065850;28;20223;-85
2021/04/08 11:06:01;;;;;;;1.83;1.70;;;12.00;99.90;;;;;;4937126;28;20216;-85
2021/04/08 11:09:41;;;;;;;3.47;3.17;;;12.80;99.90;;;;;;4996690;28;20222;-85
2021/04/08 11:13:12;;;;;;;5.77;2.90;;;12.70;99.90;;;;;;5018665;28;20243;-88
2021/04/08 11:20:24;;;;;;;3.13;2.50;;;12.70;99.90;;;;;;4899088;29;21010;-86
2021/04/08 11:23:33;;;;;;;5.47;2.37;;;11.50;99.90;;;;;;4894631;29;21270;-85
2021/04/08 11:26:16;;;;;;;2.47;2.27;;;11.70;99.90;;;;;;4866596;29;20223;-85
2021/04/08 11:29:25;;;;;;;2.33;1.87;;;12.20;99.90;;;;;;4803524;29;20720;-84
2021/04/08 11:32:47;;;;;;;4.83;2.00;;;12.40;99.90;;;;;;4732860;29;20277;-84
2021/04/08 11:42:22;;;;;;;1.30;1.10;;;12.50;99.90;;;;;;4758467;29;20228;-87
2021/04/08 11:45:48;;;;;;;;;;;;;;;;;;;;;
2021/04/08 11:48:14;;;;;;;1.50;1.40;;;11.80;99.90;;;;;;4888101;29;20191;-87
2021/04/08 11:51:41;;;;;;;1.53;1.43;;;11.40;99.90;;;;;;4892488;29;20245;-86
2021/04/08 11:55:21;;;;;;;0.90;0.90;;;11.10;99.90;;;;;;4868731;28;20259;-85
2021/04/08 12:04:54;;;;;;;1.57;1.23;;;11.30;99.90;;;;;;4902171;28;20216;-84
2021/04/08 12:07:20;;;;;;;2.40;1.40;;;11.10;99.90;;;;;;4907236;28;20757;-85
2021/04/08 12:14:49;;;;;;;3.73;1.00;;;10.70;99.90;;;;;;4885542;29;20235;-86
2021/04/08 12:17:35;;;;;;;1.17;0.87;;;10.70;99.90;;;;;;4971875;28;20213;-86
2021/04/08 12:21:08;;;;;;;0.47;0.33;;;10.60;99.90;;;;;;5003503;28;20211;-83
2021/04/08 12:24:44;;;;;;;1.30;1.20;;;10.70;99.90;;;;;;4943960;28;20288;-82
2021/04/08 12:31:11;;;;;;;0.73;0.70;;;10.10;99.90;;;;;;4835494;29;20358;-82
2021/04/08 12:33:40;;;;;;;0.80;0.60;;;10.60;99.90;;;;;;4952686;28;20216;-82
2021/04/08 12:36:11;;;;;;;0.50;0.50;;;10.60;99.90;;;;;;4953369;28;20235;-82
2021/04/08 12:38:37;;;;;;;2.00;1.30;;;10.00;99.90;;;;;;4989833;28;20288;-82
2021/04/08 12:41:04;;;;;;;1.80;1.30;;;9.80;99.90;;;;;;5030636;28;20277;-85
2021/04/08 12:43:31;;;;;;;0.50;0.50;;;10.10;99.90;;;;;;5031357;28;20185;-84
2021/04/08 12:45:58;;;;;;;0.60;0.50;;;10.10;99.90;;;;;;4999522;28;20224;-82
2021/04/08 12:48:24;;;;;;;5.10;0.53;;;10.00;99.90;;;;;;5022025;28;20230;-83
2021/04/08 12:50:51;;;;;;;1.10;0.83;;;9.90;99.90;;;;;;5008747;28;21032;-85
2021/04/08 12:53:20;;;;;;;2.27;0.47;;;9.80;99.90;;;;;;5010392;28;20186;-85
2021/04/08 12:55:47;;;;;;;2.37;1.03;;;9.70;99.90;;;;;;5012845;28;20190;-83
2021/04/08 12:58:13;;;;;;;1.27;1.00;;;9.80;99.90;;;;;;5030392;28;20218;-84
2021/04/08 13:00:39;;;;;;;0.70;0.70;;;9.90;99.90;;;;;;5013358;28;20228;-84
2021/04/08 13:03:07;;;;;;;0.83;0.80;;;9.80;99.90;;;;;;5032503;28;20299;-83
2021/04/08 13:05:33;;;;;;;0.93;0.77;;;9.50;99.90;;;;;;5027556;28;20230;-83
2021/04/08 13:07:59;;;;;;;1.33;0.83;;;9.50;99.90;;;;;;5026812;28;20187;-85
2021/04/08 13:10:25;;;;;;;0.80;0.60;;;9.40;99.90;;;;;;5028095;28;20238;-82
2021/04/08 13:12:51;;;;;;;1.47;0.90;;;9.50;99.90;;;;;;5040805;28;20241;-83
2021/04/08 13:15:17;;;;;;;1.67;0.77;;;9.60;99.90;;;;;;5036278;28;20694;-83
2021/04/08 13:17:43;;;;;;;1.00;0.57;;;9.70;99.90;;;;;;5033910;28;20252;-86
2021/04/08 13:20:12;;;;;;;2.53;0.80;;;9.50;99.90;;;;;;5050728;28;20587;-86
2021/04/08 13:22:38;;;;;;;1.80;0.57;;;9.50;99.90;;;;;;5037792;28;20499;-86
2021/04/08 13:25:06;;;;;;;0.93;0.93;;;9.70;99.90;;;;;;5032919;28;20213;-82
2021/04/08 13:27:32;;;;;;;0.30;0.30;;;9.80;99.90;;;;;;5035698;28;20241;-82
2021/04/08 13:29:58;;;;;;;7.20;1.20;;;9.60;99.90;;;;;;5051337;28;20307;-83
2021/04/08 13:32:24;;;;;;;0.80;0.70;;;9.70;99.90;;;;;;5050504;28;20226;-86
2021/04/08 13:34:50;;;;;;;1.37;1.27;;;9.70;99.90;;;;;;5035713;28;20188;-84
2021/04/08 13:37:16;;;;;;;11.73;1.10;;;9.50;99.90;;;;;;5017570;28;20674;-87
2021/04/08 13:39:42;;;;;;;3.60;0.90;;;9.80;99.90;;;;;;5049594;28;20213;-86
2021/04/08 13:42:08;;;;;;;0.83;0.60;;;9.70;99.90;;;;;;5047914;28;20318;-84
2021/04/08 13:44:34;;;;;;;0.63;0.50;;;9.70;99.90;;;;;;5033601;28;20601;-85
2021/04/08 13:47:00;;;;;;;1.20;0.90;;;9.40;99.90;;;;;;5034782;28;20194;-82
2021/04/08 13:49:26;;;;;;;0.50;0.50;;;9.50;99.90;;;;;;5056841;28;20236;-83